sensor_id;sensor_type;location;lat;lon;timestamp;pressure;altitude;pressure_sealevel;temperature;humidity
62152;BME280;48139;47.474;19.034;2023-07-24T03:48:29;100061.47;;;21.60;100.00
62152;BME280;48139;47.474;19.034;2023-07-24T03:51:32;100061.47;;;21.60;100.00
62152;BME280;48139;47.474;19.034;2023-07-24T03:54:35;100064.63;;;21.19;100.00
62152;BME280;48139;47.474;19.034;2023-07-24T03:57:38;100059.12;;;21.30;100.00
62152;BME280;48139;47.474;19.034;2023-07-24T04:00:40;100052.03;;;21.39;100.00
62152;BME280;48139;47.474;19.034;2023-07-24T04:03:43;100050.19;;;21.49;100.00
62152;BME280;48139;47.474;19.034;2023-07-24T04:06:47;100053.91;;;21.56;100.00
62152;BME280;48139;47.474;19.034;2023-07-24T04:09:49;100058.00;;;21.50;100.00
62152;BME280;48139;47.474;19.034;2023-07-24T04:12:52;100052.41;;;21.53;100.00
62152;BME280;48139;47.474;19.034;2023-07-24T04:15:55;100058.59;;;21.44;100.00
62152;BME280;48139;47.474;19.034;2023-07-24T04:18:59;100060.59;;;21.42;100.00
62152;BME280;48139;47.474;19.034;2023-07-24T04:22:02;100056.09;;;21.43;100.00
62152;BME280;48139;47.474;19.034;2023-07-24T04:25:04;100059.31;;;21.46;100.00
62152;BME280;48139;47.474;19.034;2023-07-24T04:28:07;100055.59;;;21.57;100.00
62152;BME280;48139;47.474;19.034;2023-07-24T04:31:09;100045.25;;;21.71;100.00
62152;BME280;48139;47.474;19.034;2023-07-24T04:34:12;100052.66;;;21.78;100.00
62152;BME280;48139;47.474;19.034;2023-07-24T04:37:15;100051.81;;;21.77;100.00
62152;BME280;48139;47.474;19.034;2023-07-24T04:40:17;100044.81;;;21.94;100.00
62152;BME280;48139;47.474;19.034;2023-07-24T04:43:20;100044.88;;;21.84;100.00
62152;BME280;48139;47.474;19.034;2023-07-24T04:46:22;100046.94;;;21.90;100.00
62152;BME280;48139;47.474;19.034;2023-07-24T04:49:25;100050.53;;;21.99;100.00
62152;BME280;48139;47.474;19.034;2023-07-24T04:52:28;100057.50;;;22.09;100.00
62152;BME280;48139;47.474;19.034;2023-07-24T04:55:30;100057.50;;;22.09;100.00
62152;BME280;48139;47.474;19.034;2023-07-24T04:58:33;100063.44;;;22.21;100.00
62152;BME280;48139;47.474;19.034;2023-07-24T05:01:35;100064.91;;;21.98;100.00
62152;BME280;48139;47.474;19.034;2023-07-24T05:04:39;100064.56;;;22.01;100.00
62152;BME280;48139;47.474;19.034;2023-07-24T05:07:43;100064.28;;;22.22;100.00
62152;BME280;48139;47.474;19.034;2023-07-24T05:10:46;100064.88;;;22.33;100.00
62152;BME280;48139;47.474;19.034;2023-07-24T05:13:49;100060.38;;;22.34;100.00
62152;BME280;48139;47.474;19.034;2023-07-24T05:16:51;100072.47;;;22.46;100.00
62152;BME280;48139;47.474;19.034;2023-07-24T05:19:54;100060.06;;;22.63;100.00
62152;BME280;48139;47.474;19.034;2023-07-24T05:22:57;100061.81;;;22.72;100.00
62152;BME280;48139;47.474;19.034;2023-07-24T05:26:00;100065.59;;;22.87;100.00
62152;BME280;48139;47.474;19.034;2023-07-24T05:29:04;100064.75;;;22.86;100.00
62152;BME280;48139;47.474;19.034;2023-07-24T05:32:06;100067.50;;;22.95;100.00
62152;BME280;48139;47.474;19.034;2023-07-24T05:35:09;100065.72;;;23.11;100.00
62152;BME280;48139;47.474;19.034;2023-07-24T05:38:11;100062.59;;;23.16;100.00
62152;BME280;48139;47.474;19.034;2023-07-24T05:41:14;100061.81;;;23.31;100.00
62152;BME280;48139;47.474;19.034;2023-07-24T05:44:17;100062.34;;;23.35;100.00
62152;BME280;48139;47.474;19.034;2023-07-24T05:47:19;100067.59;;;23.19;100.00
62152;BME280;48139;47.474;19.034;2023-07-24T05:50:22;100062.81;;;23.30;100.00
62152;BME280;48139;47.474;19.034;2023-07-24T05:53:25;100068.34;;;23.37;100.00
62152;BME280;48139;47.474;19.034;2023-07-24T05:56:27;100066.28;;;23.57;100.00
62152;BME280;48139;47.474;19.034;2023-07-24T05:59:32;100059.25;;;23.56;100.00
62152;BME280;48139;47.474;19.034;2023-07-24T06:02:35;100065.62;;;23.63;100.00
62152;BME280;48139;47.474;19.034;2023-07-24T06:05:37;100059.62;;;23.61;100.00
62152;BME280;48139;47.474;19.034;2023-07-24T06:08:40;100051.28;;;23.64;100.00
62152;BME280;48139;47.474;19.034;2023-07-24T06:11:43;100047.44;;;23.75;100.00
62152;BME280;48139;47.474;19.034;2023-07-24T06:14:45;100040.94;;;23.93;100.00
62152;BME280;48139;47.474;19.034;2023-07-24T06:17:48;100048.16;;;24.09;100.00
62152;BME280;48139;47.474;19.034;2023-07-24T06:20:55;100044.16;;;24.13;100.00
62152;BME280;48139;47.474;19.034;2023-07-24T06:23:58;100047.88;;;24.20;100.00
62152;BME280;48139;47.474;19.034;2023-07-24T06:27:00;100057.41;;;24.31;100.00
62152;BME280;48139;47.474;19.034;2023-07-24T06:30:03;100048.69;;;24.45;100.00
62152;BME280;48139;47.474;19.034;2023-07-24T06:33:17;100046.97;;;24.68;100.00
62152;BME280;48139;47.474;19.034;2023-07-24T06:36:20;100043.97;;;24.79;100.00
62152;BME280;48139;47.474;19.034;2023-07-24T06:39:23;100046.47;;;24.89;100.00
62152;BME280;48139;47.474;19.034;2023-07-24T06:42:26;100048.81;;;24.84;100.00
62152;BME280;48139;47.474;19.034;2023-07-24T06:45:28;100048.16;;;24.90;100.00
62152;BME280;48139;47.474;19.034;2023-07-24T06:48:31;100047.91;;;25.16;100.00
62152;BME280;48139;47.474;19.034;2023-07-24T06:51:34;100046.25;;;25.46;100.00
62152;BME280;48139;47.474;19.034;2023-07-24T06:54:37;100044.97;;;25.73;100.00
62152;BME280;48139;47.474;19.034;2023-07-24T06:57:39;100044.31;;;25.70;100.00
62152;BME280;48139;47.474;19.034;2023-07-24T07:00:42;100042.94;;;25.75;100.00
62152;BME280;48139;47.474;19.034;2023-07-24T07:03:44;100046.03;;;25.86;100.00
62152;BME280;48139;47.474;19.034;2023-07-24T07:06:47;100038.00;;;26.09;100.00
62152;BME280;48139;47.474;19.034;2023-07-24T07:09:50;100045.34;;;26.38;100.00
62152;BME280;48139;47.474;19.034;2023-07-24T07:12:53;100035.88;;;26.27;100.00
62152;BME280;48139;47.474;19.034;2023-07-24T07:15:55;100023.94;;;26.30;100.00
62152;BME280;48139;47.474;19.034;2023-07-24T07:18:58;100025.06;;;26.35;100.00
62152;BME280;48139;47.474;19.034;2023-07-24T07:22:00;100022.44;;;26.79;100.00
62152;BME280;48139;47.474;19.034;2023-07-24T07:25:03;100015.22;;;27.09;100.00
62152;BME280;48139;47.474;19.034;2023-07-24T07:28:05;100010.72;;;27.60;100.00
62152;BME280;48139;47.474;19.034;2023-07-24T07:31:08;100009.75;;;27.89;97.60
62152;BME280;48139;47.474;19.034;2023-07-24T07:34:11;100007.91;;;27.90;97.61
62152;BME280;48139;47.474;19.034;2023-07-24T07:37:14;100008.28;;;27.87;96.97
62152;BME280;48139;47.474;19.034;2023-07-24T07:40:16;100001.12;;;27.73;96.63
62152;BME280;48139;47.474;19.034;2023-07-24T07:43:19;99993.72;;;27.81;97.79
62152;BME280;48139;47.474;19.034;2023-07-24T07:46:22;100001.69;;;27.89;96.83
62152;BME280;48139;47.474;19.034;2023-07-24T07:49:25;100004.25;;;27.97;92.55
62152;BME280;48139;47.474;19.034;2023-07-24T07:52:27;100000.56;;;28.05;92.82
62152;BME280;48139;47.474;19.034;2023-07-24T07:55:29;99992.91;;;28.23;91.49
62152;BME280;48139;47.474;19.034;2023-07-24T07:58:32;99993.53;;;28.25;90.27
62152;BME280;48139;47.474;19.034;2023-07-24T08:01:36;99994.97;;;28.21;91.86
62152;BME280;48139;47.474;19.034;2023-07-24T08:04:41;99998.53;;;28.28;90.36
62152;BME280;48139;47.474;19.034;2023-07-24T08:07:44;99995.00;;;28.28;90.23
62152;BME280;48139;47.474;19.034;2023-07-24T08:10:46;99992.72;;;28.53;87.92
62152;BME280;48139;47.474;19.034;2023-07-24T08:13:49;100003.13;;;28.62;85.55
62152;BME280;48139;47.474;19.034;2023-07-24T08:16:51;99990.84;;;28.81;85.67
62152;BME280;48139;47.474;19.034;2023-07-24T08:19:55;99986.19;;;29.03;84.09
62152;BME280;48139;47.474;19.034;2023-07-24T08:22:58;99984.19;;;29.24;82.33
62152;BME280;48139;47.474;19.034;2023-07-24T08:26:00;99989.59;;;29.24;79.88
62152;BME280;48139;47.474;19.034;2023-07-24T08:29:05;99981.16;;;29.34;79.08
62152;BME280;48139;47.474;19.034;2023-07-24T08:32:07;99982.66;;;29.56;79.81
62152;BME280;48139;47.474;19.034;2023-07-24T08:35:10;99987.69;;;29.66;79.64
62152;BME280;48139;47.474;19.034;2023-07-24T08:38:13;99984.75;;;29.67;75.63
62152;BME280;48139;47.474;19.034;2023-07-24T08:41:16;99984.34;;;29.57;74.93
62152;BME280;48139;47.474;19.034;2023-07-24T08:44:18;99981.69;;;29.77;73.25
62152;BME280;48139;47.474;19.034;2023-07-24T08:47:23;99969.91;;;29.98;70.97
62152;BME280;48139;47.474;19.034;2023-07-24T08:50:26;99968.63;;;30.27;69.65
62152;BME280;48139;47.474;19.034;2023-07-24T08:53:29;99970.31;;;30.28;67.77
62152;BME280;48139;47.474;19.034;2023-07-24T08:56:40;99960.94;;;30.17;66.03
62152;BME280;48139;47.474;19.034;2023-07-24T08:59:44;99950.34;;;30.35;66.93
62152;BME280;48139;47.474;19.034;2023-07-24T09:02:46;99963.00;;;30.48;64.27
62152;BME280;48139;47.474;19.034;2023-07-24T09:05:49;99962.56;;;30.71;62.60
62152;BME280;48139;47.474;19.034;2023-07-24T09:08:54;99958.94;;;31.10;60.24
62152;BME280;48139;47.474;19.034;2023-07-24T09:11:56;99953.22;;;31.24;57.23
62152;BME280;48139;47.474;19.034;2023-07-24T09:15:04;99944.75;;;31.14;56.80
62152;BME280;48139;47.474;19.034;2023-07-24T09:18:09;99947.28;;;31.03;57.59
62152;BME280;48139;47.474;19.034;2023-07-24T09:21:13;99938.84;;;31.24;56.59
62152;BME280;48139;47.474;19.034;2023-07-24T09:24:16;99936.38;;;31.92;54.51
62152;BME280;48139;47.474;19.034;2023-07-24T09:27:18;99931.72;;;32.24;52.22
62152;BME280;48139;47.474;19.034;2023-07-24T09:30:21;99944.56;;;32.35;50.17
62152;BME280;48139;47.474;19.034;2023-07-24T09:36:38;99932.00;;;31.91;49.13
62152;BME280;48139;47.474;19.034;2023-07-24T09:39:41;99940.44;;;31.76;49.87
62152;BME280;48139;47.474;19.034;2023-07-24T09:42:43;99924.56;;;31.80;50.09
62152;BME280;48139;47.474;19.034;2023-07-24T09:46:06;99918.28;;;31.86;50.20
62152;BME280;48139;47.474;19.034;2023-07-24T09:49:10;99915.56;;;32.11;49.72
62152;BME280;48139;47.474;19.034;2023-07-24T09:52:13;99900.69;;;32.20;48.38
62152;BME280;48139;47.474;19.034;2023-07-24T09:55:25;99900.28;;;32.41;43.67
62152;BME280;48139;47.474;19.034;2023-07-24T09:58:33;99893.97;;;32.47;43.14
62152;BME280;48139;47.474;19.034;2023-07-24T10:01:37;99887.56;;;32.60;43.61
62152;BME280;48139;47.474;19.034;2023-07-24T10:04:40;99893.75;;;32.85;42.38
62152;BME280;48139;47.474;19.034;2023-07-24T10:07:43;99882.72;;;32.98;42.61
62152;BME280;48139;47.474;19.034;2023-07-24T10:10:46;99880.47;;;33.25;41.04
62152;BME280;48139;47.474;19.034;2023-07-24T10:13:49;99880.13;;;33.21;40.56
62152;BME280;48139;47.474;19.034;2023-07-24T10:16:52;99885.41;;;33.16;40.08
62152;BME280;48139;47.474;19.034;2023-07-24T10:20:03;99875.06;;;33.25;39.94
62152;BME280;48139;47.474;19.034;2023-07-24T10:23:10;99870.25;;;33.39;40.26
62152;BME280;48139;47.474;19.034;2023-07-24T10:26:13;99870.41;;;33.67;39.61
62152;BME280;48139;47.474;19.034;2023-07-24T10:29:18;99874.06;;;33.61;38.23
62152;BME280;48139;47.474;19.034;2023-07-24T10:32:22;99856.34;;;33.47;38.55
62152;BME280;48139;47.474;19.034;2023-07-24T10:35:25;99846.09;;;33.60;37.94
62152;BME280;48139;47.474;19.034;2023-07-24T10:38:35;99844.44;;;33.48;36.92
62152;BME280;48139;47.474;19.034;2023-07-24T10:41:41;99835.81;;;33.62;38.06
62152;BME280;48139;47.474;19.034;2023-07-24T10:44:46;99836.66;;;33.75;38.32
62152;BME280;48139;47.474;19.034;2023-07-24T10:47:49;99845.19;;;33.90;37.24
62152;BME280;48139;47.474;19.034;2023-07-24T10:50:53;99836.44;;;33.88;36.41
62152;BME280;48139;47.474;19.034;2023-07-24T10:53:57;99829.00;;;33.72;36.58
62152;BME280;48139;47.474;19.034;2023-07-24T10:57:00;99831.63;;;33.78;36.31
62152;BME280;48139;47.474;19.034;2023-07-24T11:00:06;99831.94;;;33.70;36.71
62152;BME280;48139;47.474;19.034;2023-07-24T11:03:09;99820.38;;;33.75;36.88
62152;BME280;48139;47.474;19.034;2023-07-24T11:06:18;99811.25;;;33.92;36.57
62152;BME280;48139;47.474;19.034;2023-07-24T11:09:21;99804.41;;;34.01;36.20
62152;BME280;48139;47.474;19.034;2023-07-24T11:12:23;99793.75;;;34.12;36.53
62152;BME280;48139;47.474;19.034;2023-07-24T11:15:29;99801.06;;;34.11;36.42
62152;BME280;48139;47.474;19.034;2023-07-24T11:18:31;99791.19;;;33.93;35.61
62152;BME280;48139;47.474;19.034;2023-07-24T11:21:53;99780.31;;;33.82;36.17
62152;BME280;48139;47.474;19.034;2023-07-24T11:24:56;99784.56;;;33.54;37.33
62152;BME280;48139;47.474;19.034;2023-07-24T11:27:59;99772.59;;;33.44;38.01
62152;BME280;48139;47.474;19.034;2023-07-24T11:31:02;99770.06;;;33.84;37.67
62152;BME280;48139;47.474;19.034;2023-07-24T11:34:05;99763.75;;;33.95;37.73
62152;BME280;48139;47.474;19.034;2023-07-24T11:37:08;99748.22;;;34.30;37.76
62152;BME280;48139;47.474;19.034;2023-07-24T11:40:10;99732.06;;;34.52;36.27
62152;BME280;48139;47.474;19.034;2023-07-24T11:43:18;99724.81;;;34.58;36.69
62152;BME280;48139;47.474;19.034;2023-07-24T11:46:31;99725.22;;;34.21;37.36
62152;BME280;48139;47.474;19.034;2023-07-24T11:49:34;99724.09;;;34.34;37.64
62152;BME280;48139;47.474;19.034;2023-07-24T11:52:41;99710.66;;;34.27;37.25
62152;BME280;48139;47.474;19.034;2023-07-24T11:55:46;99700.25;;;34.24;36.83
62152;BME280;48139;47.474;19.034;2023-07-24T11:58:48;99707.19;;;34.32;34.17
62152;BME280;48139;47.474;19.034;2023-07-24T12:01:51;99695.25;;;34.33;34.23
62152;BME280;48139;47.474;19.034;2023-07-24T12:04:57;99692.66;;;34.55;34.50
62152;BME280;48139;47.474;19.034;2023-07-24T12:08:00;99688.37;;;34.59;34.42
62152;BME280;48139;47.474;19.034;2023-07-24T12:11:15;99685.91;;;34.57;34.72
62152;BME280;48139;47.474;19.034;2023-07-24T12:14:18;99685.28;;;34.38;35.54
62152;BME280;48139;47.474;19.034;2023-07-24T12:17:21;99684.41;;;34.50;35.49
62152;BME280;48139;47.474;19.034;2023-07-24T12:20:24;99675.72;;;34.36;36.66
62152;BME280;48139;47.474;19.034;2023-07-24T12:23:26;99680.53;;;34.46;36.99
62152;BME280;48139;47.474;19.034;2023-07-24T12:26:29;99667.19;;;34.61;36.52
62152;BME280;48139;47.474;19.034;2023-07-24T12:29:31;99661.75;;;34.61;36.59
62152;BME280;48139;47.474;19.034;2023-07-24T12:32:34;99662.56;;;34.45;36.98
62152;BME280;48139;47.474;19.034;2023-07-24T12:35:37;99657.31;;;34.26;36.71
62152;BME280;48139;47.474;19.034;2023-07-24T12:38:39;99653.41;;;34.34;36.57
62152;BME280;48139;47.474;19.034;2023-07-24T12:41:42;99642.37;;;34.40;36.89
